createdAt,value
2023-04-16T00:00:07.716Z,8.68
2023-04-16T00:00:18.237Z,8.68
2023-04-16T00:00:28.727Z,8.68
2023-04-16T00:00:39.246Z,8.68
2023-04-16T00:00:49.752Z,8.66
2023-04-16T00:01:00.263Z,8.70
2023-04-16T00:01:10.762Z,8.70
2023-04-16T00:01:21.282Z,8.70
2023-04-16T00:01:31.786Z,8.71
2023-04-16T00:01:42.324Z,8.71
2023-04-16T00:01:52.881Z,8.71
2023-04-16T00:02:03.379Z,8.71
2023-04-16T00:02:13.871Z,8.71
2023-04-16T00:02:24.464Z,8.73
2023-04-16T00:02:34.896Z,8.73
2023-04-16T00:02:45.469Z,8.71
2023-04-16T00:02:56.130Z,8.73
2023-04-16T00:03:06.554Z,8.71
2023-04-16T00:03:17.082Z,8.73
2023-04-16T00:03:27.540Z,8.73
2023-04-16T00:03:38.095Z,8.74
2023-04-16T00:03:48.801Z,8.74
2023-04-16T00:03:59.336Z,8.74
2023-04-16T00:04:09.617Z,8.74
2023-04-16T00:04:20.035Z,8.73
2023-04-16T00:04:30.488Z,8.74
2023-04-16T00:04:40.989Z,8.76
2023-04-16T00:04:51.502Z,8.73
2023-04-16T00:05:01.976Z,8.74
2023-04-16T00:05:12.464Z,8.74
2023-04-16T00:05:22.970Z,8.73
2023-04-16T00:05:33.483Z,8.74
2023-04-16T00:05:43.988Z,8.74
2023-04-16T00:05:54.493Z,8.74
2023-04-16T00:06:05.020Z,8.74
2023-04-16T00:06:15.525Z,8.73
2023-04-16T00:06:26.034Z,8.74
2023-04-16T00:06:36.600Z,8.76
2023-04-16T00:06:47.048Z,8.74
2023-04-16T00:06:57.572Z,8.74
2023-04-16T00:07:08.069Z,8.74
2023-04-16T00:07:18.596Z,8.76
2023-04-16T00:07:29.096Z,8.74
2023-04-16T00:07:39.598Z,8.74
2023-04-16T00:07:50.102Z,8.74
2023-04-16T00:08:00.627Z,8.76
2023-04-16T00:08:11.120Z,8.76
2023-04-16T00:08:21.632Z,8.76
2023-04-16T00:08:32.147Z,8.76
2023-04-16T00:08:42.646Z,8.74
2023-04-16T00:08:53.179Z,8.74
2023-04-16T00:09:03.700Z,8.76
2023-04-16T00:09:14.184Z,8.76
2023-04-16T00:09:24.685Z,8.76
2023-04-16T00:09:35.191Z,8.77
2023-04-16T00:09:45.708Z,8.76
2023-04-16T00:09:56.216Z,8.76
2023-04-16T00:10:06.722Z,8.77
2023-04-16T00:10:17.232Z,8.76
2023-04-16T00:10:27.756Z,8.77
2023-04-16T00:10:38.254Z,8.77
2023-04-16T00:10:48.773Z,8.76
2023-04-16T00:10:59.295Z,8.79
2023-04-16T00:11:09.783Z,8.79
2023-04-16T00:11:20.316Z,8.79
2023-04-16T00:11:30.801Z,8.80
2023-04-16T00:11:41.312Z,8.81
2023-04-16T00:11:51.829Z,8.83
2023-04-16T00:12:02.338Z,8.83
2023-04-16T00:12:12.837Z,8.86
2023-04-16T00:12:23.347Z,8.84
2023-04-16T00:12:33.854Z,8.84
2023-04-16T00:12:44.374Z,8.83
2023-04-16T00:12:54.903Z,8.84
2023-04-16T00:13:05.385Z,8.87
2023-04-16T00:13:15.882Z,8.86
2023-04-16T00:13:26.400Z,8.86
2023-04-16T00:13:36.908Z,8.86
2023-04-16T00:13:47.412Z,8.86
2023-04-16T00:13:57.950Z,8.87
2023-04-16T00:14:08.438Z,8.86
2023-04-16T00:14:18.939Z,8.87
2023-04-16T00:14:29.458Z,8.87
2023-04-16T00:14:39.958Z,8.89
2023-04-16T00:14:50.468Z,8.86
2023-04-16T00:15:01.000Z,8.86
2023-04-16T00:15:11.497Z,8.89
2023-04-16T00:15:21.999Z,8.86
2023-04-16T00:15:32.507Z,8.89
2023-04-16T00:15:43.021Z,8.87
2023-04-16T00:15:53.523Z,8.87
2023-04-16T00:16:04.027Z,8.89
2023-04-16T00:16:14.586Z,8.87
2023-04-16T00:16:25.085Z,8.87
2023-04-16T00:16:35.594Z,8.87
2023-04-16T00:16:46.189Z,8.87
2023-04-16T00:16:56.671Z,8.89
2023-04-16T00:17:07.105Z,8.87
2023-04-16T00:17:17.603Z,8.89
2023-04-16T00:17:28.113Z,8.89
2023-04-16T00:17:38.623Z,8.91
2023-04-16T00:17:49.177Z,8.91
2023-04-16T00:17:59.672Z,8.92
2023-04-16T00:18:10.149Z,8.89
2023-04-16T00:18:20.660Z,8.89
2023-04-16T00:18:31.156Z,8.91
2023-04-16T00:18:41.675Z,8.91
2023-04-16T00:18:52.187Z,8.92
2023-04-16T00:19:03.037Z,8.92
2023-04-16T00:19:13.199Z,8.92
2023-04-16T00:19:23.736Z,8.92
2023-04-16T00:19:34.219Z,8.92
2023-04-16T00:19:44.728Z,8.92
2023-04-16T00:19:55.227Z,8.91
2023-04-16T00:20:05.737Z,8.91
2023-04-16T00:20:16.252Z,8.92
2023-04-16T00:20:26.760Z,8.91
2023-04-16T00:20:37.264Z,8.92
2023-04-16T00:20:47.780Z,8.92
2023-04-16T00:20:58.286Z,8.92
2023-04-16T00:21:08.790Z,8.94
2023-04-16T00:21:19.317Z,8.92
2023-04-16T00:21:29.825Z,8.92
2023-04-16T00:21:40.318Z,8.92
2023-04-16T00:21:50.831Z,8.92
2023-04-16T00:22:01.332Z,8.94
2023-04-16T00:22:11.860Z,8.91
2023-04-16T00:22:22.385Z,8.89
2023-04-16T00:22:32.864Z,8.92
2023-04-16T00:22:43.372Z,8.91
2023-04-16T00:22:53.884Z,8.89
2023-04-16T00:23:04.396Z,8.89
2023-04-16T00:23:14.901Z,8.89
2023-04-16T00:23:25.412Z,8.89
2023-04-16T00:23:35.958Z,8.86
2023-04-16T00:23:46.420Z,8.87
2023-04-16T00:23:56.930Z,8.87
2023-04-16T00:24:07.437Z,8.89
2023-04-16T00:24:17.964Z,8.87
2023-04-16T00:24:28.460Z,8.87
2023-04-16T00:24:38.968Z,8.87
2023-04-16T00:24:49.477Z,8.86
2023-04-16T00:25:00.070Z,8.87
2023-04-16T00:25:10.511Z,8.86
2023-04-16T00:25:21.032Z,8.87
2023-04-16T00:25:31.522Z,8.86
2023-04-16T00:25:42.034Z,8.86
2023-04-16T00:25:52.543Z,8.86
2023-04-16T00:26:03.082Z,8.86
2023-04-16T00:26:13.546Z,8.86
2023-04-16T00:26:24.059Z,8.86
2023-04-16T00:26:34.612Z,8.84
2023-04-16T00:26:45.093Z,8.84
2023-04-16T00:26:55.589Z,8.83
2023-04-16T00:27:06.097Z,8.84
2023-04-16T00:27:16.604Z,8.83
2023-04-16T00:27:27.120Z,8.83
2023-04-16T00:27:37.618Z,8.84
2023-04-16T00:27:48.127Z,8.83
2023-04-16T00:27:58.636Z,8.81
2023-04-16T00:28:10.681Z,8.83
2023-04-16T00:28:19.671Z,8.81
2023-04-16T00:28:30.162Z,8.83
2023-04-16T00:28:40.663Z,8.83
2023-04-16T00:28:51.206Z,8.84
2023-04-16T00:29:01.806Z,8.84
2023-04-16T00:29:12.200Z,8.81
2023-04-16T00:29:22.701Z,8.84
2023-04-16T00:29:33.257Z,8.83
2023-04-16T00:29:43.727Z,8.84
2023-04-16T00:29:54.242Z,8.83
2023-04-16T00:30:04.770Z,8.81
2023-04-16T00:30:15.270Z,8.84
2023-04-16T00:30:25.773Z,8.84
2023-04-16T00:30:36.307Z,8.84
2023-04-16T00:30:46.809Z,8.83
2023-04-16T00:30:57.338Z,8.83
2023-04-16T00:31:07.868Z,8.81
2023-04-16T00:31:18.362Z,8.83
2023-04-16T00:31:28.869Z,8.83
2023-04-16T00:31:39.325Z,8.81
2023-04-16T00:31:49.836Z,8.81
2023-04-16T00:32:00.351Z,8.83
2023-04-16T00:32:10.849Z,8.83
2023-04-16T00:32:21.372Z,8.81
2023-04-16T00:32:31.867Z,8.81
2023-04-16T00:32:42.442Z,8.81
2023-04-16T00:32:52.900Z,8.81
2023-04-16T00:33:03.429Z,8.83
2023-04-16T00:33:13.922Z,8.81
2023-04-16T00:33:24.421Z,8.80
2023-04-16T00:33:34.958Z,8.80
2023-04-16T00:33:45.426Z,8.80
2023-04-16T00:33:55.944Z,8.81
2023-04-16T00:34:06.446Z,8.80
2023-04-16T00:34:16.952Z,8.80
2023-04-16T00:34:27.459Z,8.81
2023-04-16T00:34:37.964Z,8.80
2023-04-16T00:34:48.468Z,8.80
2023-04-16T00:34:58.975Z,8.83
2023-04-16T00:35:09.488Z,8.83
2023-04-16T00:35:19.993Z,8.81
2023-04-16T00:35:30.505Z,8.80
2023-04-16T00:35:41.012Z,8.81
2023-04-16T00:35:51.516Z,8.80
2023-04-16T00:36:02.036Z,8.81
2023-04-16T00:36:12.626Z,8.80
2023-04-16T00:36:23.067Z,8.79
2023-04-16T00:36:33.567Z,8.79
2023-04-16T00:36:44.073Z,8.79
2023-04-16T00:36:54.594Z,8.77
2023-04-16T00:37:05.082Z,8.79
2023-04-16T00:37:15.596Z,8.79
2023-04-16T00:37:26.108Z,8.77
2023-04-16T00:37:36.612Z,8.79
2023-04-16T00:37:47.131Z,8.77
2023-04-16T00:37:57.627Z,8.79
2023-04-16T00:38:08.143Z,8.77
2023-04-16T00:38:18.655Z,8.77
2023-04-16T00:38:29.155Z,8.79
2023-04-16T00:38:39.701Z,8.77
2023-04-16T00:38:50.168Z,8.79
2023-04-16T00:39:00.677Z,8.79
2023-04-16T00:39:11.313Z,8.80
2023-04-16T00:39:21.698Z,8.79
2023-04-16T00:39:32.200Z,8.80
2023-04-16T00:39:42.728Z,8.79
2023-04-16T00:39:53.223Z,8.79
2023-04-16T00:40:03.727Z,8.79
2023-04-16T00:40:14.241Z,8.79
2023-04-16T00:40:24.761Z,8.80
2023-04-16T00:40:35.255Z,8.79
2023-04-16T00:40:45.758Z,8.79
2023-04-16T00:40:56.279Z,8.80
2023-04-16T00:41:06.902Z,8.80
2023-04-16T00:41:17.296Z,8.79
2023-04-16T00:41:27.806Z,8.79
2023-04-16T00:41:38.322Z,8.79
2023-04-16T00:41:48.825Z,8.79
2023-04-16T00:41:59.390Z,8.79
2023-04-16T00:42:09.844Z,8.80
2023-04-16T00:42:20.355Z,8.79
2023-04-16T00:42:30.872Z,8.79
2023-04-16T00:42:41.372Z,8.79
2023-04-16T00:42:51.885Z,8.79
2023-04-16T00:43:02.431Z,8.77
2023-04-16T00:43:12.899Z,8.79
2023-04-16T00:43:23.415Z,8.79
2023-04-16T00:43:33.917Z,8.79
2023-04-16T00:43:44.465Z,8.80
2023-04-16T00:43:54.943Z,8.79
2023-04-16T00:44:05.447Z,8.77
2023-04-16T00:44:15.962Z,8.77
2023-04-16T00:44:26.469Z,8.79
2023-04-16T00:44:36.981Z,8.79
2023-04-16T00:44:47.496Z,8.79
2023-04-16T00:44:58.001Z,8.79
2023-04-16T00:45:08.531Z,8.77
2023-04-16T00:45:19.024Z,8.77
2023-04-16T00:45:29.529Z,8.77
2023-04-16T00:45:40.040Z,8.77
2023-04-16T00:45:50.556Z,8.76
2023-04-16T00:46:01.118Z,8.77
2023-04-16T00:46:11.596Z,8.79
2023-04-16T00:46:22.133Z,8.77
2023-04-16T00:46:32.612Z,8.76
2023-04-16T00:46:43.148Z,8.74
2023-04-16T00:46:53.640Z,8.77
2023-04-16T00:47:04.191Z,8.77
2023-04-16T00:47:14.669Z,8.79
2023-04-16T00:47:25.164Z,8.79
2023-04-16T00:47:35.688Z,8.80
2023-04-16T00:47:46.173Z,8.81
2023-04-16T00:47:58.225Z,8.80
2023-04-16T00:48:07.169Z,8.81
2023-04-16T00:48:17.693Z,8.81
2023-04-16T00:48:28.281Z,8.81
2023-04-16T00:48:38.696Z,8.81
2023-04-16T00:48:49.219Z,8.81
2023-04-16T00:48:59.720Z,8.83
2023-04-16T00:49:10.340Z,8.84
2023-04-16T00:49:20.742Z,8.84
2023-04-16T00:49:31.242Z,8.86
2023-04-16T00:49:41.758Z,8.86
2023-04-16T00:49:52.320Z,8.87
2023-04-16T00:50:02.793Z,8.89
2023-04-16T00:50:13.325Z,8.89
2023-04-16T00:50:23.800Z,8.91
2023-04-16T00:50:34.307Z,8.91
2023-04-16T00:50:44.806Z,8.92
2023-04-16T00:50:55.311Z,8.89
2023-04-16T00:51:05.828Z,8.91
2023-04-16T00:51:16.318Z,8.92
2023-04-16T00:51:26.835Z,8.91
2023-04-16T00:51:37.342Z,8.92
2023-04-16T00:51:47.861Z,8.92
2023-04-16T00:51:58.361Z,8.91
2023-04-16T00:52:08.876Z,8.91
2023-04-16T00:52:19.380Z,8.91
2023-04-16T00:52:29.933Z,8.92
2023-04-16T00:52:40.551Z,8.91
2023-04-16T00:52:50.902Z,8.92
2023-04-16T00:53:01.416Z,8.92
2023-04-16T00:53:11.984Z,8.94
2023-04-16T00:53:22.426Z,8.91
2023-04-16T00:53:32.937Z,8.92
2023-04-16T00:53:43.446Z,8.92
2023-04-16T00:53:53.957Z,8.92
2023-04-16T00:54:04.462Z,8.92
2023-04-16T00:54:14.966Z,8.91
2023-04-16T00:54:25.473Z,8.91
2023-04-16T00:54:35.981Z,8.92
2023-04-16T00:54:46.492Z,8.92
2023-04-16T00:54:57.007Z,8.92
2023-04-16T00:55:07.583Z,8.92
2023-04-16T00:55:18.012Z,8.89
2023-04-16T00:55:28.519Z,8.92
2023-04-16T00:55:39.039Z,8.91
2023-04-16T00:55:49.540Z,8.92
2023-04-16T00:56:00.083Z,8.92
2023-04-16T00:56:10.588Z,8.91
2023-04-16T00:56:21.119Z,8.92
2023-04-16T00:56:31.576Z,8.91
2023-04-16T00:56:42.088Z,8.92
2023-04-16T00:56:52.603Z,8.94
2023-04-16T00:57:03.096Z,8.92
2023-04-16T00:57:13.618Z,8.91
2023-04-16T00:57:24.131Z,8.92
2023-04-16T00:57:34.651Z,8.92
2023-04-16T00:57:45.145Z,8.92
2023-04-16T00:57:55.656Z,8.94
2023-04-16T00:58:06.153Z,8.91
2023-04-16T00:58:16.677Z,8.91
2023-04-16T00:58:27.164Z,8.92
2023-04-16T00:58:37.669Z,8.92
2023-04-16T00:58:48.178Z,8.94
2023-04-16T00:58:58.683Z,8.91
2023-04-16T00:59:09.458Z,8.92
2023-04-16T00:59:19.705Z,8.92
2023-04-16T00:59:30.222Z,8.91
2023-04-16T00:59:40.718Z,8.92
2023-04-16T00:59:51.242Z,8.91
2023-04-16T01:00:01.740Z,8.89
2023-04-16T01:00:12.310Z,8.92
2023-04-16T01:00:22.750Z,8.92
2023-04-16T01:00:33.268Z,8.92
2023-04-16T01:00:43.771Z,8.94
2023-04-16T01:00:54.289Z,8.92
2023-04-16T01:01:04.895Z,8.92
2023-04-16T01:01:15.318Z,8.91
2023-04-16T01:01:25.844Z,8.91
2023-04-16T01:01:36.397Z,8.91
2023-04-16T01:01:46.885Z,8.92
2023-04-16T01:01:57.460Z,8.92
2023-04-16T01:02:07.996Z,8.89
2023-04-16T01:02:18.433Z,8.91
2023-04-16T01:02:29.044Z,8.92
2023-04-16T01:02:39.512Z,8.92
2023-04-16T01:02:49.950Z,8.91
2023-04-16T01:03:00.557Z,8.91
2023-04-16T01:03:11.066Z,8.92
2023-04-16T01:03:21.536Z,8.89
2023-04-16T01:03:32.147Z,8.92
2023-04-16T01:03:42.532Z,8.91
2023-04-16T01:03:53.064Z,8.91
2023-04-16T01:04:03.488Z,8.92
2023-04-16T01:04:14.111Z,8.92
2023-04-16T01:04:24.562Z,8.91
2023-04-16T01:04:34.993Z,8.92
2023-04-16T01:04:45.492Z,8.94
2023-04-16T01:04:55.999Z,8.95
2023-04-16T01:05:06.513Z,8.94
2023-04-16T01:05:17.011Z,8.94
2023-04-16T01:05:27.528Z,8.95
2023-04-16T01:05:38.041Z,8.95
2023-04-16T01:05:48.566Z,8.96
2023-04-16T01:05:59.057Z,8.95
2023-04-16T01:06:09.576Z,8.95
2023-04-16T01:06:20.082Z,8.95
2023-04-16T01:06:30.596Z,8.96
2023-04-16T01:06:41.109Z,8.96
2023-04-16T01:06:51.626Z,8.96
2023-04-16T01:07:02.127Z,8.95
2023-04-16T01:07:12.687Z,8.95
2023-04-16T01:07:23.162Z,8.96
2023-04-16T01:07:33.663Z,8.95
2023-04-16T01:07:44.208Z,8.96
2023-04-16T01:07:54.672Z,8.95
2023-04-16T01:08:05.185Z,8.98
2023-04-16T01:08:15.710Z,8.95
2023-04-16T01:08:26.221Z,8.98
2023-04-16T01:08:36.718Z,8.96
2023-04-16T01:08:47.244Z,8.98
2023-04-16T01:08:57.747Z,8.98
2023-04-16T01:09:08.481Z,8.96
2023-04-16T01:09:18.757Z,8.96
2023-04-16T01:09:29.261Z,8.96
2023-04-16T01:09:39.772Z,8.98
2023-04-16T01:09:50.277Z,8.99
2023-04-16T01:10:00.821Z,8.99
2023-04-16T01:10:11.303Z,8.98
2023-04-16T01:10:21.810Z,8.98
2023-04-16T01:10:32.309Z,8.98
2023-04-16T01:10:42.832Z,8.98
2023-04-16T01:10:53.324Z,8.99
2023-04-16T01:11:03.846Z,8.99
2023-04-16T01:11:14.721Z,9.02
2023-04-16T01:11:24.863Z,9.01
2023-04-16T01:11:35.363Z,9.01
2023-04-16T01:11:45.873Z,9.01
2023-04-16T01:11:56.391Z,9.01
2023-04-16T01:12:06.900Z,9.02
2023-04-16T01:12:17.410Z,9.01
2023-04-16T01:12:27.909Z,9.02
2023-04-16T01:12:38.488Z,9.02
2023-04-16T01:12:48.953Z,9.01
2023-04-16T01:12:59.437Z,9.02
2023-04-16T01:13:09.943Z,9.01
2023-04-16T01:13:20.448Z,9.01
2023-04-16T01:13:30.974Z,9.01
2023-04-16T01:13:41.492Z,9.01
2023-04-16T01:13:51.984Z,9.01
2023-04-16T01:14:02.484Z,9.01
2023-04-16T01:14:13.004Z,9.01
2023-04-16T01:14:23.513Z,9.01
2023-04-16T01:14:34.010Z,9.01
2023-04-16T01:14:44.529Z,9.02
2023-04-16T01:14:55.039Z,9.01
2023-04-16T01:15:05.529Z,9.01
2023-04-16T01:15:16.077Z,9.01
2023-04-16T01:15:26.564Z,8.99
2023-04-16T01:15:37.102Z,9.02
2023-04-16T01:15:47.605Z,8.99
2023-04-16T01:15:58.135Z,8.99
2023-04-16T01:16:08.696Z,9.01
2023-04-16T01:16:19.232Z,8.99
2023-04-16T01:16:29.654Z,9.01
2023-04-16T01:16:40.123Z,8.99
2023-04-16T01:16:50.622Z,8.99
2023-04-16T01:17:01.138Z,8.98
2023-04-16T01:17:11.700Z,8.98
2023-04-16T01:17:22.177Z,8.98
2023-04-16T01:17:32.751Z,8.99
2023-04-16T01:17:43.207Z,8.98
2023-04-16T01:17:53.856Z,8.98
2023-04-16T01:18:04.205Z,8.98
2023-04-16T01:18:14.691Z,8.99
2023-04-16T01:18:25.197Z,8.99
2023-04-16T01:18:35.726Z,8.98
2023-04-16T01:18:46.220Z,8.98
2023-04-16T01:18:56.726Z,8.98
2023-04-16T01:19:07.440Z,8.98
2023-04-16T01:19:17.745Z,8.98
2023-04-16T01:19:28.254Z,8.99
2023-04-16T01:19:38.763Z,8.98
2023-04-16T01:19:49.322Z,8.99
2023-04-16T01:19:59.791Z,8.99
2023-04-16T01:20:10.288Z,8.99
2023-04-16T01:20:20.818Z,8.98
2023-04-16T01:20:31.317Z,8.99
2023-04-16T01:20:41.837Z,8.99
2023-04-16T01:20:52.340Z,8.99
2023-04-16T01:21:02.913Z,8.99
2023-04-16T01:21:13.360Z,9.02
2023-04-16T01:21:23.860Z,9.01
2023-04-16T01:21:34.371Z,9.01
2023-04-16T01:21:44.882Z,9.01
2023-04-16T01:21:55.389Z,9.01
2023-04-16T01:22:05.894Z,9.02
2023-04-16T01:22:16.406Z,9.02
2023-04-16T01:22:26.909Z,9.02
2023-04-16T01:22:37.477Z,9.02
2023-04-16T01:22:47.939Z,9.04
2023-04-16T01:22:58.426Z,9.02
2023-04-16T01:23:08.941Z,9.02
2023-04-16T01:23:19.450Z,9.02
2023-04-16T01:23:29.959Z,9.02
2023-04-16T01:23:40.462Z,9.02
2023-04-16T01:23:50.968Z,9.02
2023-04-16T01:24:01.505Z,9.01
2023-04-16T01:24:11.989Z,9.02
2023-04-16T01:24:22.514Z,9.02
2023-04-16T01:24:33.001Z,9.01
2023-04-16T01:24:43.509Z,9.01
2023-04-16T01:24:54.036Z,9.01
2023-04-16T01:25:04.534Z,9.02
2023-04-16T01:25:15.036Z,9.01
2023-04-16T01:25:25.549Z,9.02
2023-04-16T01:25:36.051Z,9.01
2023-04-16T01:25:46.573Z,9.02
2023-04-16T01:25:57.076Z,9.02
2023-04-16T01:26:07.586Z,9.01
2023-04-16T01:26:18.101Z,9.01
2023-04-16T01:26:28.595Z,9.04
2023-04-16T01:26:39.099Z,8.99
2023-04-16T01:26:49.605Z,9.01
2023-04-16T01:27:00.143Z,8.99
2023-04-16T01:27:10.623Z,9.01
2023-04-16T01:27:21.126Z,9.01
2023-04-16T01:27:31.645Z,9.02
2023-04-16T01:27:42.192Z,9.02
2023-04-16T01:27:52.651Z,9.01
2023-04-16T01:28:03.160Z,9.01
2023-04-16T01:28:13.667Z,9.01
2023-04-16T01:28:24.172Z,9.02
2023-04-16T01:28:34.680Z,8.99
2023-04-16T01:28:45.191Z,9.01
2023-04-16T01:28:55.702Z,9.02
2023-04-16T01:29:06.291Z,9.01
2023-04-16T01:29:16.739Z,9.02
2023-04-16T01:29:27.221Z,9.02
2023-04-16T01:29:37.727Z,9.01
2023-04-16T01:29:48.235Z,9.01
2023-04-16T01:29:58.749Z,9.02
2023-04-16T01:30:09.256Z,9.02
2023-04-16T01:30:19.848Z,9.02
2023-04-16T01:30:30.272Z,9.01
2023-04-16T01:30:40.803Z,9.02
2023-04-16T01:30:51.288Z,9.01
2023-04-16T01:31:01.851Z,9.01
2023-04-16T01:31:12.334Z,9.02
2023-04-16T01:31:22.878Z,9.01
2023-04-16T01:31:33.348Z,9.02
2023-04-16T01:31:43.850Z,9.02
2023-04-16T01:31:54.480Z,9.01
2023-04-16T01:32:04.862Z,9.02
2023-04-16T01:32:15.370Z,9.01
2023-04-16T01:32:25.904Z,9.01
2023-04-16T01:32:36.404Z,9.01
2023-04-16T01:32:46.914Z,9.04
2023-04-16T01:32:57.462Z,9.01
2023-04-16T01:33:07.928Z,9.02
2023-04-16T01:33:18.432Z,9.01
2023-04-16T01:33:28.933Z,9.01
2023-04-16T01:33:39.447Z,9.02
2023-04-16T01:33:49.953Z,9.02
2023-04-16T01:34:00.482Z,9.02
2023-04-16T01:34:10.998Z,9.02
2023-04-16T01:34:21.484Z,9.01
2023-04-16T01:34:31.983Z,9.02
2023-04-16T01:34:42.529Z,9.01
2023-04-16T01:34:53.001Z,9.01
2023-04-16T01:35:03.509Z,9.02
2023-04-16T01:35:14.018Z,8.99
2023-04-16T01:35:24.533Z,9.01
2023-04-16T01:35:35.043Z,9.02
2023-04-16T01:35:45.560Z,9.01
2023-04-16T01:35:56.057Z,9.01
2023-04-16T01:36:06.573Z,9.01
2023-04-16T01:36:17.080Z,9.01
2023-04-16T01:36:27.693Z,9.01
2023-04-16T01:36:38.128Z,9.01
2023-04-16T01:36:48.637Z,9.02
2023-04-16T01:36:59.123Z,9.02
2023-04-16T01:37:09.623Z,9.02
2023-04-16T01:37:20.135Z,9.01
2023-04-16T01:37:30.645Z,9.01
2023-04-16T01:37:41.168Z,9.02
2023-04-16T01:37:51.691Z,9.01
2023-04-16T01:38:02.177Z,9.02
2023-04-16T01:38:12.749Z,9.02
2023-04-16T01:38:23.192Z,9.02
2023-04-16T01:38:33.716Z,9.04
2023-04-16T01:38:44.208Z,9.02
2023-04-16T01:38:54.724Z,9.04
2023-04-16T01:39:05.238Z,9.02
2023-04-16T01:39:15.804Z,9.02
2023-04-16T01:39:26.243Z,9.02
2023-04-16T01:39:36.755Z,9.05
2023-04-16T01:39:47.604Z,9.04
2023-04-16T01:39:57.780Z,9.05
2023-04-16T01:40:08.286Z,9.05
2023-04-16T01:40:18.798Z,9.05
2023-04-16T01:40:29.309Z,9.05
2023-04-16T01:40:39.815Z,9.05
2023-04-16T01:40:50.335Z,9.05
2023-04-16T01:41:00.843Z,9.08
2023-04-16T01:41:11.351Z,9.08
2023-04-16T01:41:21.865Z,9.08
2023-04-16T01:41:32.370Z,9.08
2023-04-16T01:41:42.884Z,9.08
2023-04-16T01:41:53.388Z,9.08
2023-04-16T01:42:03.907Z,9.08
2023-04-16T01:42:14.421Z,9.05
2023-04-16T01:42:24.936Z,9.08
2023-04-16T01:42:35.437Z,9.05
2023-04-16T01:42:46.028Z,9.08
2023-04-16T01:42:56.456Z,9.08
2023-04-16T01:43:06.975Z,9.04
2023-04-16T01:43:17.478Z,9.05
2023-04-16T01:43:27.993Z,9.05
2023-04-16T01:43:40.280Z,9.08
2023-04-16T01:43:49.006Z,9.08
2023-04-16T01:43:59.518Z,9.04
2023-04-16T01:44:10.040Z,9.08
2023-04-16T01:44:20.533Z,9.05
2023-04-16T01:44:31.049Z,9.05
2023-04-16T01:44:41.551Z,9.08
2023-04-16T01:44:52.054Z,9.08
2023-04-16T01:45:02.565Z,9.10
2023-04-16T01:45:13.086Z,9.08
2023-04-16T01:45:23.605Z,9.10
2023-04-16T01:45:34.099Z,9.05
2023-04-16T01:45:44.604Z,9.05
2023-04-16T01:45:55.112Z,9.08
2023-04-16T01:46:05.624Z,9.08
2023-04-16T01:46:16.174Z,9.10
2023-04-16T01:46:26.664Z,9.05
2023-04-16T01:46:37.187Z,9.08
2023-04-16T01:46:47.720Z,9.08
2023-04-16T01:46:58.375Z,9.05
2023-04-16T01:47:08.739Z,9.10
2023-04-16T01:47:19.205Z,9.08
2023-04-16T01:47:29.780Z,9.08
2023-04-16T01:47:40.280Z,9.05
2023-04-16T01:47:50.728Z,9.08
2023-04-16T01:48:01.311Z,9.08
2023-04-16T01:48:11.735Z,9.08
2023-04-16T01:48:22.250Z,9.10
2023-04-16T01:48:32.752Z,9.10
2023-04-16T01:48:43.269Z,9.10
2023-04-16T01:48:53.774Z,9.08
2023-04-16T01:49:04.291Z,9.10
2023-04-16T01:49:14.799Z,9.10
2023-04-16T01:49:25.323Z,9.08
2023-04-16T01:49:35.820Z,9.10
2023-04-16T01:49:46.328Z,9.10
2023-04-16T01:49:56.836Z,9.10
2023-04-16T01:50:07.373Z,9.11
2023-04-16T01:50:17.858Z,9.10
2023-04-16T01:50:28.377Z,9.10
2023-04-16T01:50:38.878Z,9.10
2023-04-16T01:50:49.387Z,9.11
2023-04-16T01:50:59.892Z,9.10
2023-04-16T01:51:10.411Z,9.10
2023-04-16T01:51:20.914Z,9.10
2023-04-16T01:51:31.418Z,9.10
2023-04-16T01:51:41.932Z,9.11
2023-04-16T01:51:52.447Z,9.11
2023-04-16T01:52:03.055Z,9.11
2023-04-16T01:52:13.460Z,9.11
2023-04-16T01:52:23.981Z,9.11
2023-04-16T01:52:34.483Z,9.11
2023-04-16T01:52:44.996Z,9.11
2023-04-16T01:52:55.506Z,9.10
2023-04-16T01:53:06.045Z,9.10
2023-04-16T01:53:16.533Z,9.10
2023-04-16T01:53:27.041Z,9.10
2023-04-16T01:53:37.574Z,9.10
2023-04-16T01:53:48.060Z,9.13
2023-04-16T01:53:58.581Z,9.11
2023-04-16T01:54:09.099Z,9.10
2023-04-16T01:54:19.589Z,9.11
2023-04-16T01:54:30.116Z,9.08
2023-04-16T01:54:40.613Z,9.11
2023-04-16T01:54:51.116Z,9.10
2023-04-16T01:55:01.745Z,9.11
2023-04-16T01:55:12.139Z,9.08
2023-04-16T01:55:22.669Z,9.08
2023-04-16T01:55:33.153Z,9.08
2023-04-16T01:55:43.662Z,9.08
2023-04-16T01:55:54.165Z,9.10
2023-04-16T01:56:04.685Z,9.08
2023-04-16T01:56:15.191Z,9.08
2023-04-16T01:56:25.707Z,9.05
2023-04-16T01:56:36.202Z,9.08
2023-04-16T01:56:46.722Z,9.08
2023-04-16T01:56:57.234Z,9.05
2023-04-16T01:57:07.742Z,9.05
2023-04-16T01:57:18.256Z,9.05
2023-04-16T01:57:28.753Z,9.05
2023-04-16T01:57:39.292Z,9.08
2023-04-16T01:57:49.778Z,9.08
2023-04-16T01:58:00.286Z,9.05
2023-04-16T01:58:10.805Z,9.08
2023-04-16T01:58:21.302Z,9.05
2023-04-16T01:58:31.814Z,9.05
2023-04-16T01:58:42.318Z,9.05
2023-04-16T01:58:52.839Z,9.08
2023-04-16T01:59:03.364Z,9.08
2023-04-16T01:59:13.844Z,9.05
2023-04-16T01:59:24.359Z,9.05
2023-04-16T01:59:34.864Z,9.04
2023-04-16T01:59:45.369Z,9.04
2023-04-16T01:59:55.876Z,9.05
2023-04-16T02:00:06.386Z,9.05
2023-04-16T02:00:16.926Z,9.04
2023-04-16T02:00:27.429Z,9.05
2023-04-16T02:00:37.955Z,9.04
2023-04-16T02:00:48.578Z,9.04
2023-04-16T02:00:59.078Z,9.04
2023-04-16T02:01:09.501Z,9.04
2023-04-16T02:01:20.020Z,9.05
2023-04-16T02:01:30.619Z,9.04
2023-04-16T02:01:40.974Z,9.02
2023-04-16T02:01:51.522Z,9.04
2023-04-16T02:02:02.022Z,9.04
2023-04-16T02:02:12.598Z,9.08
2023-04-16T02:02:23.120Z,9.04
2023-04-16T02:02:33.640Z,9.04
2023-04-16T02:02:44.178Z,9.05
2023-04-16T02:02:54.642Z,9.05
2023-04-16T02:03:05.157Z,9.05
2023-04-16T02:03:15.742Z,9.04
2023-04-16T02:03:26.212Z,9.02
2023-04-16T02:03:36.808Z,9.02
2023-04-16T02:03:47.295Z,9.05
2023-04-16T02:03:57.683Z,9.04
2023-04-16T02:04:08.210Z,9.04
2023-04-16T02:04:18.601Z,9.04
2023-04-16T02:04:29.129Z,9.04
2023-04-16T02:04:39.617Z,9.02
2023-04-16T02:04:50.127Z,9.02
2023-04-16T02:05:00.864Z,9.04
2023-04-16T02:05:11.159Z,9.02
2023-04-16T02:05:21.653Z,9.02
2023-04-16T02:05:32.181Z,9.04
2023-04-16T02:05:42.674Z,9.04
2023-04-16T02:05:53.192Z,9.04
2023-04-16T02:06:03.712Z,9.01
2023-04-16T02:06:14.205Z,9.02
2023-04-16T02:06:24.714Z,9.01
2023-04-16T02:06:35.225Z,9.02
2023-04-16T02:06:45.741Z,9.02
2023-04-16T02:06:56.266Z,9.04
2023-04-16T02:07:06.808Z,9.04
2023-04-16T02:07:17.281Z,9.04
2023-04-16T02:07:27.783Z,9.02
2023-04-16T02:07:38.296Z,9.02
2023-04-16T02:07:48.836Z,9.01
2023-04-16T02:07:59.333Z,9.02
2023-04-16T02:08:09.824Z,9.02
2023-04-16T02:08:20.403Z,9.04
2023-04-16T02:08:30.842Z,9.04
2023-04-16T02:08:41.361Z,9.04
2023-04-16T02:08:51.864Z,9.04
2023-04-16T02:09:02.383Z,9.02
2023-04-16T02:09:12.881Z,9.02
2023-04-16T02:09:23.390Z,9.04
2023-04-16T02:09:33.910Z,9.02
2023-04-16T02:09:44.417Z,9.02
2023-04-16T02:09:54.926Z,9.02
2023-04-16T02:10:05.445Z,9.05
2023-04-16T02:10:15.957Z,9.04
2023-04-16T02:10:26.460Z,9.04
2023-04-16T02:10:36.978Z,9.05
2023-04-16T02:10:47.473Z,9.02
2023-04-16T02:10:57.977Z,9.02
2023-04-16T02:11:08.488Z,9.04
2023-04-16T02:11:19.021Z,9.05
2023-04-16T02:11:29.514Z,9.04
2023-04-16T02:11:40.018Z,9.04
2023-04-16T02:11:50.583Z,9.04
2023-04-16T02:12:01.039Z,9.05
2023-04-16T02:12:11.549Z,9.02
2023-04-16T02:12:22.079Z,9.02
2023-04-16T02:12:32.561Z,9.04
2023-04-16T02:12:43.073Z,9.04
2023-04-16T02:12:53.580Z,9.02
2023-04-16T02:13:04.086Z,9.02
2023-04-16T02:13:14.591Z,9.02
2023-04-16T02:13:25.104Z,9.02
2023-04-16T02:13:35.640Z,9.04
2023-04-16T02:13:46.127Z,9.04
2023-04-16T02:13:56.630Z,9.04
2023-04-16T02:14:07.144Z,9.02
2023-04-16T02:14:17.653Z,9.02
2023-04-16T02:14:28.161Z,9.02
2023-04-16T02:14:38.678Z,9.01
2023-04-16T02:14:49.196Z,9.02
2023-04-16T02:14:59.728Z,8.99
2023-04-16T02:15:10.208Z,9.01
2023-04-16T02:15:20.714Z,9.01
2023-04-16T02:15:31.257Z,9.02
2023-04-16T02:15:41.739Z,8.99
2023-04-16T02:15:52.246Z,9.02
2023-04-16T02:16:02.895Z,9.02
2023-04-16T02:16:13.343Z,9.02
2023-04-16T02:16:23.798Z,9.02
2023-04-16T02:16:34.363Z,9.02
2023-04-16T02:16:44.829Z,9.01
2023-04-16T02:16:55.366Z,9.02
2023-04-16T02:17:05.814Z,9.01
2023-04-16T02:17:16.319Z,9.02
2023-04-16T02:17:26.952Z,9.01
2023-04-16T02:17:37.346Z,9.01
2023-04-16T02:17:47.871Z,9.02
2023-04-16T02:17:58.378Z,9.01
2023-04-16T02:18:08.970Z,9.01
2023-04-16T02:18:19.372Z,9.01
2023-04-16T02:18:29.878Z,9.01
2023-04-16T02:18:40.397Z,9.01
2023-04-16T02:18:50.897Z,9.02
2023-04-16T02:19:01.442Z,9.02
2023-04-16T02:19:11.932Z,9.01
2023-04-16T02:19:22.426Z,9.02
2023-04-16T02:19:32.943Z,9.02
2023-04-16T02:19:43.486Z,9.01
2023-04-16T02:19:53.965Z,8.99